sensor_id;sensor_type;location;lat;lon;timestamp;pressure;altitude;pressure_sealevel;temperature;humidity
17060;BME280;8646;49.716;9.266;2023-05-21T00:01:28;100038.03;;;16.54;80.53
17060;BME280;8646;49.716;9.266;2023-05-21T00:04:31;100045.38;;;16.54;80.72
17060;BME280;8646;49.716;9.266;2023-05-21T00:07:36;100032.72;;;16.53;80.61
17060;BME280;8646;49.716;9.266;2023-05-21T00:10:39;100038.91;;;16.55;80.48
17060;BME280;8646;49.716;9.266;2023-05-21T00:13:41;100017.19;;;16.40;80.57
17060;BME280;8646;49.716;9.266;2023-05-21T00:16:44;100034.56;;;16.52;80.15
17060;BME280;8646;49.716;9.266;2023-05-21T00:19:47;100027.47;;;16.50;80.36
17060;BME280;8646;49.716;9.266;2023-05-21T00:22:53;100032.91;;;16.50;80.28
17060;BME280;8646;49.716;9.266;2023-05-21T00:25:56;100031.16;;;16.49;80.75
17060;BME280;8646;49.716;9.266;2023-05-21T00:28:58;100029.41;;;16.48;80.40
17060;BME280;8646;49.716;9.266;2023-05-21T00:32:02;100021.22;;;16.48;80.81
17060;BME280;8646;49.716;9.266;2023-05-21T00:35:06;100025.69;;;16.49;80.77
17060;BME280;8646;49.716;9.266;2023-05-21T00:38:10;100018.59;;;16.46;80.88
17060;BME280;8646;49.716;9.266;2023-05-21T00:41:14;100022.44;;;16.44;81.31
17060;BME280;8646;49.716;9.266;2023-05-21T00:44:17;100023.41;;;16.42;81.34
17060;BME280;8646;49.716;9.266;2023-05-21T00:47:21;100015.22;;;16.42;81.12
17060;BME280;8646;49.716;9.266;2023-05-21T00:50:24;100014.34;;;16.42;81.41
17060;BME280;8646;49.716;9.266;2023-05-21T00:53:29;100007.25;;;16.39;81.50
17060;BME280;8646;49.716;9.266;2023-05-21T00:56:35;100009.00;;;16.40;81.37
17060;BME280;8646;49.716;9.266;2023-05-21T00:59:38;100009.09;;;16.39;81.16
17060;BME280;8646;49.716;9.266;2023-05-21T01:02:41;100002.75;;;16.38;81.04
17060;BME280;8646;49.716;9.266;2023-05-21T01:05:45;100006.25;;;16.40;81.27
17060;BME280;8646;49.716;9.266;2023-05-21T01:08:50;99997.28;;;16.38;81.14
17060;BME280;8646;49.716;9.266;2023-05-21T01:11:54;99999.28;;;16.36;81.18
17060;BME280;8646;49.716;9.266;2023-05-21T01:14:58;99998.31;;;16.37;81.28
17060;BME280;8646;49.716;9.266;2023-05-21T01:18:02;99994.03;;;16.33;81.70
17060;BME280;8646;49.716;9.266;2023-05-21T01:21:06;99993.16;;;16.33;81.76
17060;BME280;8646;49.716;9.266;2023-05-21T01:24:11;99986.94;;;16.31;82.10
17060;BME280;8646;49.716;9.266;2023-05-21T01:27:14;99988.78;;;16.30;81.76
17060;BME280;8646;49.716;9.266;2023-05-21T01:30:18;99989.91;;;16.28;82.00
17060;BME280;8646;49.716;9.266;2023-05-21T01:33:25;99987.28;;;16.26;82.10
17060;BME280;8646;49.716;9.266;2023-05-21T01:36:33;99983.66;;;16.26;82.14
17060;BME280;8646;49.716;9.266;2023-05-21T01:39:43;99982.00;;;16.23;81.95
17060;BME280;8646;49.716;9.266;2023-05-21T01:42:49;99980.25;;;16.22;82.16
17060;BME280;8646;49.716;9.266;2023-05-21T01:45:54;99980.72;;;16.16;82.24
17060;BME280;8646;49.716;9.266;2023-05-21T01:48:57;99977.66;;;16.21;82.59
17060;BME280;8646;49.716;9.266;2023-05-21T01:52:00;99977.00;;;16.17;82.38
17060;BME280;8646;49.716;9.266;2023-05-21T01:55:06;99952.31;;;16.06;82.46
17060;BME280;8646;49.716;9.266;2023-05-21T01:58:09;99979.84;;;16.16;82.69
17060;BME280;8646;49.716;9.266;2023-05-21T02:01:12;99969.00;;;16.14;82.58
17060;BME280;8646;49.716;9.266;2023-05-21T02:04:15;99972.09;;;16.10;82.89
17060;BME280;8646;49.716;9.266;2023-05-21T02:07:18;99956.56;;;15.97;82.96
17060;BME280;8646;49.716;9.266;2023-05-21T02:10:22;99963.22;;;16.06;83.01
17060;BME280;8646;49.716;9.266;2023-05-21T02:13:32;99969.81;;;16.03;83.17
17060;BME280;8646;49.716;9.266;2023-05-21T02:16:34;99963.66;;;16.00;83.00
17060;BME280;8646;49.716;9.266;2023-05-21T02:19:39;99965.63;;;15.98;83.37
17060;BME280;8646;49.716;9.266;2023-05-21T02:22:43;99963.13;;;15.95;83.36
17060;BME280;8646;49.716;9.266;2023-05-21T02:25:48;99973.38;;;15.91;83.03
17060;BME280;8646;49.716;9.266;2023-05-21T02:28:50;99962.34;;;15.93;83.27
17060;BME280;8646;49.716;9.266;2023-05-21T02:31:54;99971.53;;;15.92;83.42
17060;BME280;8646;49.716;9.266;2023-05-21T02:34:57;99971.53;;;15.92;83.61
17060;BME280;8646;49.716;9.266;2023-05-21T02:38:00;99963.34;;;15.92;83.28
17060;BME280;8646;49.716;9.266;2023-05-21T02:41:05;99965.28;;;15.90;83.72
17060;BME280;8646;49.716;9.266;2023-05-21T02:44:07;99957.09;;;15.90;83.53
17060;BME280;8646;49.716;9.266;2023-05-21T02:47:10;99958.13;;;15.89;83.99
17060;BME280;8646;49.716;9.266;2023-05-21T02:50:13;99963.69;;;15.87;83.83
17060;BME280;8646;49.716;9.266;2023-05-21T02:53:16;99964.66;;;15.86;83.99
17060;BME280;8646;49.716;9.266;2023-05-21T02:56:20;99959.28;;;15.85;84.34
17060;BME280;8646;49.716;9.266;2023-05-21T02:59:23;99963.97;;;15.83;83.98
17060;BME280;8646;49.716;9.266;2023-05-21T03:02:26;99963.09;;;15.82;84.42
17060;BME280;8646;49.716;9.266;2023-05-21T03:05:29;99962.34;;;15.80;84.48
17060;BME280;8646;49.716;9.266;2023-05-21T03:08:32;99962.34;;;15.80;84.29
17060;BME280;8646;49.716;9.266;2023-05-21T03:11:36;99963.44;;;15.78;84.70
17060;BME280;8646;49.716;9.266;2023-05-21T03:14:39;99963.63;;;15.75;84.85
17060;BME280;8646;49.716;9.266;2023-05-21T03:17:44;99957.53;;;15.71;84.49
17060;BME280;8646;49.716;9.266;2023-05-21T03:20:48;99958.63;;;15.69;84.81
17060;BME280;8646;49.716;9.266;2023-05-21T03:23:52;99960.66;;;15.65;84.50
17060;BME280;8646;49.716;9.266;2023-05-21T03:27:00;99957.19;;;15.63;84.72
17060;BME280;8646;49.716;9.266;2023-05-21T03:30:04;99952.03;;;15.58;84.94
17060;BME280;8646;49.716;9.266;2023-05-21T03:33:07;99957.03;;;15.52;84.81
17060;BME280;8646;49.716;9.266;2023-05-21T03:36:11;99956.16;;;15.51;85.26
17060;BME280;8646;49.716;9.266;2023-05-21T03:39:14;99960.06;;;15.47;85.33
17060;BME280;8646;49.716;9.266;2023-05-21T03:42:18;99962.22;;;15.42;85.62
17060;BME280;8646;49.716;9.266;2023-05-21T03:45:21;99958.75;;;15.40;85.36
17060;BME280;8646;49.716;9.266;2023-05-21T03:48:24;99964.41;;;15.37;85.66
17060;BME280;8646;49.716;9.266;2023-05-21T03:51:27;99960.81;;;15.37;85.95
17060;BME280;8646;49.716;9.266;2023-05-21T03:54:31;99964.41;;;15.37;85.88
17060;BME280;8646;49.716;9.266;2023-05-21T03:57:35;99955.69;;;15.32;85.88
17060;BME280;8646;49.716;9.266;2023-05-21T04:00:38;99968.88;;;15.38;86.13
17060;BME280;8646;49.716;9.266;2023-05-21T04:03:41;99957.00;;;15.39;85.81
17060;BME280;8646;49.716;9.266;2023-05-21T04:06:44;99966.69;;;15.43;85.90
17060;BME280;8646;49.716;9.266;2023-05-21T04:09:47;99958.75;;;15.40;85.96
17060;BME280;8646;49.716;9.266;2023-05-21T04:12:51;99961.81;;;15.48;86.13
17060;BME280;8646;49.716;9.266;2023-05-21T04:15:54;99954.22;;;15.53;86.15
17060;BME280;8646;49.716;9.266;2023-05-21T04:18:56;99963.41;;;15.65;86.16
17060;BME280;8646;49.716;9.266;2023-05-21T04:22:00;99965.63;;;15.73;85.90
17060;BME280;8646;49.716;9.266;2023-05-21T04:25:03;99971.41;;;15.81;85.50
17060;BME280;8646;49.716;9.266;2023-05-21T04:28:08;99958.84;;;15.91;85.39
17060;BME280;8646;49.716;9.266;2023-05-21T04:31:11;99969.13;;;16.00;85.06
17060;BME280;8646;49.716;9.266;2023-05-21T04:34:14;99956.25;;;16.02;84.84
17060;BME280;8646;49.716;9.266;2023-05-21T04:37:19;99967.16;;;16.15;84.74
17060;BME280;8646;49.716;9.266;2023-05-21T04:40:25;99969.25;;;16.24;84.28
17060;BME280;8646;49.716;9.266;2023-05-21T04:43:29;99972.19;;;16.33;84.00
17060;BME280;8646;49.716;9.266;2023-05-21T04:46:32;99974.38;;;16.41;83.39
17060;BME280;8646;49.716;9.266;2023-05-21T04:49:36;99965.84;;;16.46;83.93
17060;BME280;8646;49.716;9.266;2023-05-21T04:52:39;99966.38;;;16.51;83.63
17060;BME280;8646;49.716;9.266;2023-05-21T04:55:42;99954.91;;;16.58;83.20
17060;BME280;8646;49.716;9.266;2023-05-21T04:58:46;99957.09;;;16.66;83.35
17060;BME280;8646;49.716;9.266;2023-05-21T05:01:49;99969.09;;;16.76;82.81
17060;BME280;8646;49.716;9.266;2023-05-21T05:04:53;99968.66;;;16.82;82.57
17060;BME280;8646;49.716;9.266;2023-05-21T05:07:56;99961.72;;;16.89;82.07
17060;BME280;8646;49.716;9.266;2023-05-21T05:10:58;99968.84;;;16.92;81.86
17060;BME280;8646;49.716;9.266;2023-05-21T05:14:02;99962.03;;;16.97;81.75
17060;BME280;8646;49.716;9.266;2023-05-21T05:17:05;99971.00;;;16.99;81.95
17060;BME280;8646;49.716;9.266;2023-05-21T05:20:10;99963.31;;;17.04;81.81
17060;BME280;8646;49.716;9.266;2023-05-21T05:23:13;99955.66;;;17.09;81.38
17060;BME280;8646;49.716;9.266;2023-05-21T05:26:16;99952.69;;;17.12;81.13
17060;BME280;8646;49.716;9.266;2023-05-21T05:29:20;99956.69;;;17.20;80.97
17060;BME280;8646;49.716;9.266;2023-05-21T05:32:23;99958.09;;;17.25;80.98
17060;BME280;8646;49.716;9.266;2023-05-21T05:35:26;99951.41;;;17.29;80.63
17060;BME280;8646;49.716;9.266;2023-05-21T05:38:29;99943.75;;;17.34;80.66
17060;BME280;8646;49.716;9.266;2023-05-21T05:41:31;99955.06;;;17.41;80.31
17060;BME280;8646;49.716;9.266;2023-05-21T05:44:35;99942.03;;;17.44;80.02
17060;BME280;8646;49.716;9.266;2023-05-21T05:47:38;99957.41;;;17.58;80.00
17060;BME280;8646;49.716;9.266;2023-05-21T05:50:41;99949.72;;;17.63;79.63
17060;BME280;8646;49.716;9.266;2023-05-21T05:53:44;99948.25;;;17.70;79.65
17060;BME280;8646;49.716;9.266;2023-05-21T05:56:47;99951.38;;;17.77;79.15
17060;BME280;8646;49.716;9.266;2023-05-21T05:59:51;99943.44;;;17.85;79.14
17060;BME280;8646;49.716;9.266;2023-05-21T06:02:53;99938.88;;;17.97;78.54
17060;BME280;8646;49.716;9.266;2023-05-21T06:05:56;99939.63;;;18.10;78.60
17060;BME280;8646;49.716;9.266;2023-05-21T06:08:59;99935.94;;;18.44;77.50
17060;BME280;8646;49.716;9.266;2023-05-21T06:12:02;99940.16;;;18.82;76.17
17060;BME280;8646;49.716;9.266;2023-05-21T06:15:08;99932.28;;;18.99;75.93
17060;BME280;8646;49.716;9.266;2023-05-21T06:18:11;99930.34;;;19.22;75.05
17060;BME280;8646;49.716;9.266;2023-05-21T06:21:14;99928.91;;;19.71;73.79
17060;BME280;8646;49.716;9.266;2023-05-21T06:24:17;99933.19;;;20.05;72.52
17060;BME280;8646;49.716;9.266;2023-05-21T06:27:20;99925.28;;;20.33;71.54
17060;BME280;8646;49.716;9.266;2023-05-21T06:30:24;99914.78;;;20.78;70.06
17060;BME280;8646;49.716;9.266;2023-05-21T06:33:27;99903.19;;;21.43;67.80
17060;BME280;8646;49.716;9.266;2023-05-21T06:36:30;99902.69;;;22.05;65.15
17060;BME280;8646;49.716;9.266;2023-05-21T06:39:32;99900.50;;;22.56;63.76
17060;BME280;8646;49.716;9.266;2023-05-21T06:42:35;99898.91;;;22.90;62.71
17060;BME280;8646;49.716;9.266;2023-05-21T06:45:39;99892.53;;;22.90;62.46
17060;BME280;8646;49.716;9.266;2023-05-21T06:48:43;99878.88;;;22.61;61.98
17060;BME280;8646;49.716;9.266;2023-05-21T06:51:46;99892.66;;;22.61;61.98
17060;BME280;8646;49.716;9.266;2023-05-21T06:54:49;99890.31;;;22.66;61.55
17060;BME280;8646;49.716;9.266;2023-05-21T06:57:52;99888.81;;;22.71;61.74
17060;BME280;8646;49.716;9.266;2023-05-21T07:00:56;99892.91;;;22.77;61.16
17060;BME280;8646;49.716;9.266;2023-05-21T07:03:59;99885.75;;;22.84;60.33
17060;BME280;8646;49.716;9.266;2023-05-21T07:07:03;99883.81;;;22.94;59.89
17060;BME280;8646;49.716;9.266;2023-05-21T07:10:07;99879.72;;;23.16;59.56
17060;BME280;8646;49.716;9.266;2023-05-21T07:13:10;99875.31;;;23.23;59.07
17060;BME280;8646;49.716;9.266;2023-05-21T07:16:14;99875.16;;;23.42;58.75
17060;BME280;8646;49.716;9.266;2023-05-21T07:19:18;99883.78;;;23.57;58.15
17060;BME280;8646;49.716;9.266;2023-05-21T07:22:21;99877.84;;;23.52;57.10
17060;BME280;8646;49.716;9.266;2023-05-21T07:25:27;99872.31;;;23.52;56.73
17060;BME280;8646;49.716;9.266;2023-05-21T07:28:30;99874.06;;;23.53;56.03
17060;BME280;8646;49.716;9.266;2023-05-21T07:31:35;99871.59;;;23.68;55.85
17060;BME280;8646;49.716;9.266;2023-05-21T07:34:38;99872.72;;;23.39;55.91
17060;BME280;8646;49.716;9.266;2023-05-21T07:37:41;99865.44;;;23.38;56.39
17060;BME280;8646;49.716;9.266;2023-05-21T07:40:44;99870.91;;;23.48;55.63
17060;BME280;8646;49.716;9.266;2023-05-21T07:43:48;99868.00;;;23.49;55.09
17060;BME280;8646;49.716;9.266;2023-05-21T07:46:52;99867.03;;;23.41;55.22
17060;BME280;8646;49.716;9.266;2023-05-21T07:49:55;99864.28;;;23.41;55.62
17060;BME280;8646;49.716;9.266;2023-05-21T07:52:59;99870.09;;;23.38;55.29
17060;BME280;8646;49.716;9.266;2023-05-21T07:56:03;99864.66;;;23.46;55.70
17060;BME280;8646;49.716;9.266;2023-05-21T07:59:06;99864.84;;;23.62;55.28
17060;BME280;8646;49.716;9.266;2023-05-21T08:02:10;99867.81;;;23.69;54.82
17060;BME280;8646;49.716;9.266;2023-05-21T08:05:13;99853.47;;;23.47;54.45
17060;BME280;8646;49.716;9.266;2023-05-21T08:08:17;99861.50;;;23.23;55.79
17060;BME280;8646;49.716;9.266;2023-05-21T08:11:20;99869.41;;;23.18;55.95
17060;BME280;8646;49.716;9.266;2023-05-21T08:14:23;99865.53;;;23.29;55.83
17060;BME280;8646;49.716;9.266;2023-05-21T08:17:28;99866.88;;;23.42;54.63
17060;BME280;8646;49.716;9.266;2023-05-21T08:20:31;99863.72;;;23.37;55.54
17060;BME280;8646;49.716;9.266;2023-05-21T08:23:34;99860.09;;;23.54;55.15
17060;BME280;8646;49.716;9.266;2023-05-21T08:26:37;99854.56;;;23.72;54.70
17060;BME280;8646;49.716;9.266;2023-05-21T08:29:40;99850.03;;;23.89;54.33
17060;BME280;8646;49.716;9.266;2023-05-21T08:32:44;99858.28;;;24.07;53.89
17060;BME280;8646;49.716;9.266;2023-05-21T08:35:47;99856.44;;;24.15;53.15
17060;BME280;8646;49.716;9.266;2023-05-21T08:38:50;99847.72;;;24.28;52.73
17060;BME280;8646;49.716;9.266;2023-05-21T08:41:58;99843.06;;;24.28;51.66
17060;BME280;8646;49.716;9.266;2023-05-21T08:45:05;99857.13;;;24.43;52.08
17060;BME280;8646;49.716;9.266;2023-05-21T08:48:09;99852.03;;;24.56;51.44
17060;BME280;8646;49.716;9.266;2023-05-21T08:51:14;99846.56;;;24.73;50.85
17060;BME280;8646;49.716;9.266;2023-05-21T08:54:17;99847.59;;;24.80;49.52
17060;BME280;8646;49.716;9.266;2023-05-21T08:57:21;99852.09;;;24.73;50.04
17060;BME280;8646;49.716;9.266;2023-05-21T09:00:26;99851.06;;;24.82;50.40
17060;BME280;8646;49.716;9.266;2023-05-21T09:03:30;99850.88;;;24.83;49.74
17060;BME280;8646;49.716;9.266;2023-05-21T09:06:33;99844.31;;;24.84;49.25
17060;BME280;8646;49.716;9.266;2023-05-21T09:09:41;99849.44;;;24.97;49.01
17060;BME280;8646;49.716;9.266;2023-05-21T09:12:47;99837.84;;;25.09;49.16
17060;BME280;8646;49.716;9.266;2023-05-21T09:15:50;99838.72;;;25.18;48.81
17060;BME280;8646;49.716;9.266;2023-05-21T09:18:54;99839.44;;;25.28;48.12
17060;BME280;8646;49.716;9.266;2023-05-21T09:22:00;99846.19;;;25.34;47.81
17060;BME280;8646;49.716;9.266;2023-05-21T09:25:05;99848.25;;;25.32;47.99
17060;BME280;8646;49.716;9.266;2023-05-21T09:28:13;99851.41;;;25.37;47.59
17060;BME280;8646;49.716;9.266;2023-05-21T09:31:17;99843.44;;;25.34;47.93
17060;BME280;8646;49.716;9.266;2023-05-21T09:34:24;99851.75;;;25.34;47.56
17060;BME280;8646;49.716;9.266;2023-05-21T09:37:26;99842.91;;;25.38;47.08
17060;BME280;8646;49.716;9.266;2023-05-21T09:40:30;99842.56;;;25.41;45.83
17060;BME280;8646;49.716;9.266;2023-05-21T09:43:33;99857.81;;;25.37;45.76
17060;BME280;8646;49.716;9.266;2023-05-21T09:46:39;99851.84;;;25.08;46.96
17060;BME280;8646;49.716;9.266;2023-05-21T09:49:44;99849.63;;;25.12;46.68
17060;BME280;8646;49.716;9.266;2023-05-21T09:52:48;99846.50;;;25.23;46.92
17060;BME280;8646;49.716;9.266;2023-05-21T09:55:56;99840.84;;;25.40;46.52
17060;BME280;8646;49.716;9.266;2023-05-21T09:59:01;99821.81;;;25.45;46.46
17060;BME280;8646;49.716;9.266;2023-05-21T10:02:15;99831.66;;;25.56;45.74
17060;BME280;8646;49.716;9.266;2023-05-21T10:05:24;99828.41;;;25.69;45.82
17060;BME280;8646;49.716;9.266;2023-05-21T10:08:30;99823.22;;;25.74;45.84
17060;BME280;8646;49.716;9.266;2023-05-21T10:11:35;99813.13;;;25.89;45.47
17060;BME280;8646;49.716;9.266;2023-05-21T10:14:39;99818.16;;;25.94;45.45
17060;BME280;8646;49.716;9.266;2023-05-21T10:17:44;99809.97;;;26.16;43.32
17060;BME280;8646;49.716;9.266;2023-05-21T10:20:49;99807.25;;;25.92;44.33
17060;BME280;8646;49.716;9.266;2023-05-21T10:23:54;99815.59;;;25.84;44.11
17060;BME280;8646;49.716;9.266;2023-05-21T10:26:57;99800.69;;;25.93;44.01
17060;BME280;8646;49.716;9.266;2023-05-21T10:30:03;99797.66;;;26.11;43.15
17060;BME280;8646;49.716;9.266;2023-05-21T10:33:07;99797.16;;;26.15;43.11
17060;BME280;8646;49.716;9.266;2023-05-21T10:36:14;99784.28;;;26.22;42.94
17060;BME280;8646;49.716;9.266;2023-05-21T10:39:19;99795.22;;;26.32;42.70
17060;BME280;8646;49.716;9.266;2023-05-21T10:42:44;99797.59;;;26.35;42.54
17060;BME280;8646;49.716;9.266;2023-05-21T10:46:03;99787.34;;;26.44;42.42
17060;BME280;8646;49.716;9.266;2023-05-21T10:49:34;99791.59;;;26.63;42.11
17060;BME280;8646;49.716;9.266;2023-05-21T10:52:51;99787.88;;;26.78;42.33
17060;BME280;8646;49.716;9.266;2023-05-21T10:56:07;99779.31;;;26.88;40.40
17060;BME280;8646;49.716;9.266;2023-05-21T10:59:20;99791.28;;;26.88;40.56
17060;BME280;8646;49.716;9.266;2023-05-21T11:02:27;99791.81;;;26.84;40.26
17060;BME280;8646;49.716;9.266;2023-05-21T11:05:38;99784.91;;;26.80;39.89
17060;BME280;8646;49.716;9.266;2023-05-21T11:08:46;99782.31;;;26.78;39.49
17060;BME280;8646;49.716;9.266;2023-05-21T11:11:50;99774.34;;;26.83;39.40
17060;BME280;8646;49.716;9.266;2023-05-21T11:14:55;99782.44;;;26.93;39.39
17060;BME280;8646;49.716;9.266;2023-05-21T11:17:58;99771.31;;;26.93;38.78
17060;BME280;8646;49.716;9.266;2023-05-21T11:21:04;99770.09;;;26.95;38.28
17060;BME280;8646;49.716;9.266;2023-05-21T11:24:17;99770.22;;;27.02;38.67
17060;BME280;8646;49.716;9.266;2023-05-21T11:27:30;99763.88;;;27.16;38.70
17060;BME280;8646;49.716;9.266;2023-05-21T11:30:34;99764.94;;;27.38;38.33
17060;BME280;8646;49.716;9.266;2023-05-21T11:33:41;99761.28;;;27.60;37.83
17060;BME280;8646;49.716;9.266;2023-05-21T11:36:45;99758.53;;;27.75;37.12
17060;BME280;8646;49.716;9.266;2023-05-21T11:39:50;99764.78;;;27.92;37.44
17060;BME280;8646;49.716;9.266;2023-05-21T11:42:54;99767.19;;;27.95;37.59
17060;BME280;8646;49.716;9.266;2023-05-21T11:45:58;99763.25;;;28.04;36.51
17060;BME280;8646;49.716;9.266;2023-05-21T11:49:02;99763.19;;;28.12;36.36
17060;BME280;8646;49.716;9.266;2023-05-21T11:52:06;99761.25;;;28.13;35.86
17060;BME280;8646;49.716;9.266;2023-05-21T11:55:11;99741.88;;;28.04;35.92
17060;BME280;8646;49.716;9.266;2023-05-21T11:58:17;99759.66;;;28.18;34.54
17060;BME280;8646;49.716;9.266;2023-05-21T12:01:21;99773.47;;;28.26;34.79
17060;BME280;8646;49.716;9.266;2023-05-21T12:04:28;99772.31;;;28.35;35.05
17060;BME280;8646;49.716;9.266;2023-05-21T12:07:31;99753.31;;;28.24;35.50
17060;BME280;8646;49.716;9.266;2023-05-21T12:10:36;99764.63;;;28.37;35.01
17060;BME280;8646;49.716;9.266;2023-05-21T12:13:40;99765.38;;;28.31;35.30
17060;BME280;8646;49.716;9.266;2023-05-21T12:16:43;99758.00;;;28.38;35.32
17060;BME280;8646;49.716;9.266;2023-05-21T12:19:46;99754.53;;;28.51;35.34
17060;BME280;8646;49.716;9.266;2023-05-21T12:22:49;99752.97;;;28.63;35.31
17060;BME280;8646;49.716;9.266;2023-05-21T12:25:53;99759.88;;;28.67;34.90
17060;BME280;8646;49.716;9.266;2023-05-21T12:28:57;99756.91;;;28.69;34.92
17060;BME280;8646;49.716;9.266;2023-05-21T12:32:00;99760.66;;;28.76;34.94
17060;BME280;8646;49.716;9.266;2023-05-21T12:35:04;99767.97;;;28.77;34.47
17060;BME280;8646;49.716;9.266;2023-05-21T12:38:07;99761.13;;;28.65;34.44
17060;BME280;8646;49.716;9.266;2023-05-21T12:41:11;99755.47;;;28.58;34.57
17060;BME280;8646;49.716;9.266;2023-05-21T12:44:14;99753.34;;;28.75;35.06
17060;BME280;8646;49.716;9.266;2023-05-21T12:47:18;99754.91;;;28.99;34.32
17060;BME280;8646;49.716;9.266;2023-05-21T12:50:21;99750.16;;;29.14;34.26
17060;BME280;8646;49.716;9.266;2023-05-21T12:53:24;99746.66;;;29.27;33.98
17060;BME280;8646;49.716;9.266;2023-05-21T12:56:43;99753.44;;;29.39;33.32
17060;BME280;8646;49.716;9.266;2023-05-21T12:59:48;99745.94;;;29.39;32.98
17060;BME280;8646;49.716;9.266;2023-05-21T13:02:51;99757.28;;;29.38;33.18
17060;BME280;8646;49.716;9.266;2023-05-21T13:05:57;99756.31;;;29.31;32.84
17060;BME280;8646;49.716;9.266;2023-05-21T13:09:00;99747.28;;;29.29;32.64
17060;BME280;8646;49.716;9.266;2023-05-21T13:12:05;99748.25;;;29.36;32.60
17060;BME280;8646;49.716;9.266;2023-05-21T13:15:08;99759.31;;;29.29;31.69
17060;BME280;8646;49.716;9.266;2023-05-21T13:18:12;99760.16;;;29.30;32.22
17060;BME280;8646;49.716;9.266;2023-05-21T13:21:16;99754.22;;;29.33;31.87
17060;BME280;8646;49.716;9.266;2023-05-21T13:24:19;99763.44;;;29.33;31.66
17060;BME280;8646;49.716;9.266;2023-05-21T13:27:24;99755.41;;;29.23;31.42
17060;BME280;8646;49.716;9.266;2023-05-21T13:30:27;99759.38;;;29.14;31.52
17060;BME280;8646;49.716;9.266;2023-05-21T13:33:30;99765.47;;;29.03;31.48
17060;BME280;8646;49.716;9.266;2023-05-21T13:36:33;99761.16;;;29.01;32.04
17060;BME280;8646;49.716;9.266;2023-05-21T13:39:36;99760.75;;;29.04;31.44
17060;BME280;8646;49.716;9.266;2023-05-21T13:42:41;99760.44;;;28.92;32.06
17060;BME280;8646;49.716;9.266;2023-05-21T13:45:46;99763.66;;;28.96;31.76
17060;BME280;8646;49.716;9.266;2023-05-21T13:48:50;99754.72;;;29.00;32.28
17060;BME280;8646;49.716;9.266;2023-05-21T13:51:53;99748.38;;;29.06;32.15
17060;BME280;8646;49.716;9.266;2023-05-21T13:54:56;99744.53;;;29.07;32.08
17060;BME280;8646;49.716;9.266;2023-05-21T13:58:00;99748.91;;;29.16;32.10
17060;BME280;8646;49.716;9.266;2023-05-21T14:01:03;99748.09;;;29.22;32.40
17060;BME280;8646;49.716;9.266;2023-05-21T14:04:07;99738.06;;;29.28;32.27
17060;BME280;8646;49.716;9.266;2023-05-21T14:07:10;99753.03;;;29.42;32.69
17060;BME280;8646;49.716;9.266;2023-05-21T14:10:13;99743.53;;;29.36;32.62
17060;BME280;8646;49.716;9.266;2023-05-21T14:13:18;99740.47;;;29.31;32.65
17060;BME280;8646;49.716;9.266;2023-05-21T14:16:21;99741.91;;;29.27;32.67
17060;BME280;8646;49.716;9.266;2023-05-21T14:19:25;99744.44;;;29.22;32.96
17060;BME280;8646;49.716;9.266;2023-05-21T14:22:30;99737.34;;;29.19;32.74
17060;BME280;8646;49.716;9.266;2023-05-21T14:25:33;99743.78;;;29.20;32.70
17060;BME280;8646;49.716;9.266;2023-05-21T14:28:38;99738.16;;;29.13;33.03
17060;BME280;8646;49.716;9.266;2023-05-21T14:31:41;99732.19;;;29.16;32.63
17060;BME280;8646;49.716;9.266;2023-05-21T14:34:44;99734.84;;;29.25;33.12
17060;BME280;8646;49.716;9.266;2023-05-21T14:37:48;99736.81;;;29.31;32.84
17060;BME280;8646;49.716;9.266;2023-05-21T14:40:51;99736.16;;;29.29;32.50
17060;BME280;8646;49.716;9.266;2023-05-21T14:43:55;99739.50;;;29.17;33.17
17060;BME280;8646;49.716;9.266;2023-05-21T14:46:58;99738.16;;;29.13;32.89
17060;BME280;8646;49.716;9.266;2023-05-21T14:50:01;99734.97;;;29.16;33.29
17060;BME280;8646;49.716;9.266;2023-05-21T14:53:04;99733.78;;;29.26;32.78
17060;BME280;8646;49.716;9.266;2023-05-21T14:56:07;99731.00;;;29.26;32.92
17060;BME280;8646;49.716;9.266;2023-05-21T14:59:11;99736.16;;;29.29;32.52
17060;BME280;8646;49.716;9.266;2023-05-21T15:02:14;99735.50;;;29.27;32.32
17060;BME280;8646;49.716;9.266;2023-05-21T15:05:18;99731.84;;;29.26;31.98
17060;BME280;8646;49.716;9.266;2023-05-21T15:08:21;99738.81;;;29.37;31.79
17060;BME280;8646;49.716;9.266;2023-05-21T15:11:24;99731.00;;;29.26;32.03
17060;BME280;8646;49.716;9.266;2023-05-21T15:14:28;99726.66;;;29.23;32.25
17060;BME280;8646;49.716;9.266;2023-05-21T15:17:31;99733.50;;;29.20;32.25
17060;BME280;8646;49.716;9.266;2023-05-21T15:20:34;99731.44;;;29.29;32.11
17060;BME280;8646;49.716;9.266;2023-05-21T15:23:37;99719.44;;;29.07;31.91
17060;BME280;8646;49.716;9.266;2023-05-21T15:26:40;99722.75;;;28.96;32.05
17060;BME280;8646;49.716;9.266;2023-05-21T15:29:44;99715.44;;;28.95;32.12
17060;BME280;8646;49.716;9.266;2023-05-21T15:32:47;99728.13;;;28.98;32.03
17060;BME280;8646;49.716;9.266;2023-05-21T15:35:50;99710.75;;;28.96;32.24
17060;BME280;8646;49.716;9.266;2023-05-21T15:38:53;99724.91;;;28.79;32.45
17060;BME280;8646;49.716;9.266;2023-05-21T15:41:56;99718.91;;;28.61;33.35
17060;BME280;8646;49.716;9.266;2023-05-21T15:45:00;99710.31;;;28.41;33.36
17060;BME280;8646;49.716;9.266;2023-05-21T15:48:03;99718.50;;;28.28;33.59
17060;BME280;8646;49.716;9.266;2023-05-21T15:51:06;99720.28;;;28.06;34.17
17060;BME280;8646;49.716;9.266;2023-05-21T15:54:09;99713.00;;;27.91;33.93
17060;BME280;8646;49.716;9.266;2023-05-21T15:57:12;99709.53;;;27.74;33.97
17060;BME280;8646;49.716;9.266;2023-05-21T16:00:16;99718.19;;;27.64;34.08
17060;BME280;8646;49.716;9.266;2023-05-21T16:03:19;99719.97;;;27.57;34.09
17060;BME280;8646;49.716;9.266;2023-05-21T16:06:22;99707.19;;;27.48;34.47
17060;BME280;8646;49.716;9.266;2023-05-21T16:09:26;99707.06;;;27.42;34.78
17060;BME280;8646;49.716;9.266;2023-05-21T16:12:29;99713.38;;;27.35;34.59
17060;BME280;8646;49.716;9.266;2023-05-21T16:15:33;99713.28;;;27.29;35.02
17060;BME280;8646;49.716;9.266;2023-05-21T16:18:36;99714.09;;;27.15;35.16
17060;BME280;8646;49.716;9.266;2023-05-21T16:21:40;99711.16;;;27.08;36.11
17060;BME280;8646;49.716;9.266;2023-05-21T16:24:43;99698.81;;;26.88;36.59
17060;BME280;8646;49.716;9.266;2023-05-21T16:27:46;99711.16;;;26.85;36.77